createdAt,value
2022-10-29T00:01:06.790Z,2.95
2022-10-29T00:03:33.234Z,2.60
2022-10-29T00:06:02.506Z,3.30
2022-10-29T00:08:30.472Z,3.28
2022-10-29T00:11:06.268Z,2.88
2022-10-29T00:13:32.942Z,2.72
2022-10-29T00:15:59.409Z,2.95
2022-10-29T00:18:26.818Z,3.33
2022-10-29T00:21:00.967Z,3.10
2022-10-29T00:23:27.372Z,2.60
2022-10-29T00:25:59.608Z,2.65
2022-10-29T00:28:26.587Z,2.97
2022-10-29T00:30:52.981Z,2.30
2022-10-29T00:36:12.622Z,3.38
2022-10-29T00:38:39.085Z,3.15
2022-10-29T00:41:07.113Z,2.92
2022-10-29T00:43:36.132Z,3.13
2022-10-29T00:46:12.749Z,3.22
2022-10-29T00:48:48.664Z,2.65
2022-10-29T00:51:16.570Z,2.75
2022-10-29T00:53:48.309Z,3.13
2022-10-29T00:56:16.291Z,3.33
2022-10-29T00:58:45.887Z,2.83
2022-10-29T01:01:12.708Z,2.72
2022-10-29T01:03:39.342Z,2.55
2022-10-29T01:06:06.135Z,2.70
2022-10-29T01:08:32.560Z,2.95
2022-10-29T01:10:59.021Z,2.70
2022-10-29T01:13:47.019Z,2.60
2022-10-29T01:16:24.698Z,2.85
2022-10-29T01:19:09.350Z,2.42
2022-10-29T01:21:40.242Z,2.75
2022-10-29T01:24:20.040Z,2.50
2022-10-29T01:27:17.344Z,2.50
2022-10-29T01:30:05.464Z,2.50
2022-10-29T01:32:57.479Z,3.28
2022-10-29T01:35:51.638Z,2.42
2022-10-29T01:38:34.648Z,2.53
2022-10-29T01:41:23.717Z,2.88
2022-10-29T01:43:57.006Z,2.70
2022-10-29T01:46:52.948Z,2.92
2022-10-29T01:49:25.465Z,2.58
2022-10-29T01:51:54.022Z,2.65
2022-10-29T01:54:20.996Z,2.60
2022-10-29T01:56:55.247Z,3.05
2022-10-29T01:59:51.374Z,2.92
2022-10-29T02:02:33.885Z,3.33
2022-10-29T02:05:33.016Z,3.50
2022-10-29T02:08:08.561Z,3.03
2022-10-29T02:10:44.021Z,2.53
2022-10-29T02:13:14.094Z,2.95
2022-10-29T02:15:51.276Z,2.78
2022-10-29T02:18:17.940Z,3.20
2022-10-29T02:20:45.973Z,3.65
2022-10-29T02:23:13.322Z,2.88
2022-10-29T02:25:39.757Z,3.17
2022-10-29T02:28:06.408Z,2.90
2022-10-29T02:30:36.829Z,3.13
2022-10-29T02:33:03.282Z,3.03
2022-10-29T02:35:29.671Z,2.83
2022-10-29T02:37:56.042Z,3.17
2022-10-29T02:40:22.420Z,3.00
2022-10-29T02:42:48.970Z,3.33
2022-10-29T02:45:15.420Z,3.20
2022-10-29T02:47:41.813Z,3.13
2022-10-29T02:50:08.869Z,3.17
2022-10-29T02:52:35.225Z,3.35
2022-10-29T02:55:01.612Z,3.17
2022-10-29T02:57:27.988Z,3.20
2022-10-29T02:59:54.434Z,2.67
2022-10-29T03:02:20.916Z,2.85
2022-10-29T03:04:47.352Z,3.15
2022-10-29T03:07:13.788Z,2.78
2022-10-29T03:09:40.238Z,3.15
2022-10-29T03:12:07.029Z,2.42
2022-10-29T03:14:33.516Z,2.97
2022-10-29T03:16:59.958Z,2.90
2022-10-29T03:19:26.335Z,2.83
2022-10-29T03:21:52.704Z,3.10
2022-10-29T03:24:19.085Z,2.83
2022-10-29T03:26:45.624Z,3.05
2022-10-29T03:29:12.004Z,2.90
2022-10-29T03:31:38.439Z,2.65
2022-10-29T03:34:04.889Z,2.90
2022-10-29T03:36:31.327Z,2.97
2022-10-29T03:38:57.699Z,2.70
2022-10-29T03:41:24.152Z,2.65
2022-10-29T03:43:50.911Z,2.45
2022-10-29T03:46:17.321Z,2.30
2022-10-29T03:48:43.697Z,2.88
2022-10-29T03:51:10.454Z,2.70
2022-10-29T03:53:38.349Z,2.67
2022-10-29T03:56:05.373Z,2.30
2022-10-29T03:58:31.792Z,8.27
2022-10-29T04:01:03.482Z,11.68
2022-10-29T04:03:31.839Z,9.18
2022-10-29T04:06:03.556Z,21.73
2022-10-29T04:08:29.991Z,15.18
2022-10-29T04:10:56.358Z,12.68
2022-10-29T04:13:22.785Z,14.85
2022-10-29T04:15:52.936Z,11.82
2022-10-29T04:18:19.305Z,6.32
2022-10-29T04:21:59.031Z,4.70
2022-10-29T04:29:07.087Z,3.80
2022-10-29T04:31:33.464Z,4.57
2022-10-29T04:33:59.882Z,4.95
2022-10-29T04:36:26.283Z,3.97
2022-10-29T04:38:52.722Z,4.13
2022-10-29T04:41:19.103Z,3.95
2022-10-29T04:43:58.947Z,3.75
2022-10-29T04:46:25.450Z,3.70
2022-10-29T04:48:54.549Z,3.70
2022-10-29T04:51:26.285Z,4.20
2022-10-29T04:53:52.798Z,3.85
2022-10-29T04:56:25.217Z,3.63
2022-10-29T04:58:52.674Z,3.70
2022-10-29T05:01:30.471Z,3.63
2022-10-29T05:03:59.865Z,3.20
2022-10-29T05:06:26.719Z,3.33
2022-10-29T05:08:53.123Z,3.72
2022-10-29T05:11:19.566Z,6.95
2022-10-29T05:13:46.453Z,13.60
2022-10-29T05:16:18.116Z,14.40
2022-10-29T05:18:44.547Z,12.65
2022-10-29T05:21:10.919Z,21.33
2022-10-29T05:23:37.511Z,14.88
2022-10-29T05:26:04.044Z,11.88
2022-10-29T05:28:30.553Z,9.60
2022-10-29T05:31:00.870Z,8.00
2022-10-29T05:33:27.273Z,7.50
2022-10-29T05:35:58.721Z,6.07
2022-10-29T05:38:25.180Z,4.40
2022-10-29T05:40:51.565Z,3.58
2022-10-29T05:43:24.240Z,3.22
2022-10-29T05:45:50.778Z,3.40
2022-10-29T05:48:18.350Z,2.75
2022-10-29T05:50:44.825Z,3.00
2022-10-29T05:53:13.577Z,3.70
2022-10-29T05:55:40.980Z,3.10
2022-10-29T05:58:13.191Z,3.38
2022-10-29T06:00:42.681Z,4.75
2022-10-29T06:03:31.168Z,4.70
2022-10-29T06:05:57.577Z,5.00
2022-10-29T06:08:24.028Z,4.65
2022-10-29T06:10:50.497Z,5.13
2022-10-29T06:13:19.054Z,5.60
2022-10-29T06:15:46.797Z,4.78
2022-10-29T06:18:13.587Z,6.13
2022-10-29T06:20:40.123Z,6.75
2022-10-29T06:23:06.875Z,5.50
2022-10-29T06:25:33.297Z,5.47
2022-10-29T06:28:05.324Z,5.35
2022-10-29T06:30:34.190Z,4.68
2022-10-29T06:33:09.832Z,4.75
2022-10-29T06:35:36.357Z,4.03
2022-10-29T06:38:07.794Z,4.05
2022-10-29T06:40:38.404Z,4.00
2022-10-29T06:43:06.864Z,4.20
2022-10-29T06:45:34.277Z,3.50
2022-10-29T06:48:01.343Z,4.35
2022-10-29T06:50:28.489Z,3.70
2022-10-29T06:52:55.943Z,3.80
2022-10-29T06:55:22.595Z,3.45
2022-10-29T06:57:56.484Z,4.13
2022-10-29T07:00:22.856Z,4.10
2022-10-29T07:02:59.520Z,3.97
2022-10-29T07:05:26.602Z,3.90
2022-10-29T07:08:00.823Z,4.45
2022-10-29T07:10:29.780Z,4.30
2022-10-29T07:12:56.382Z,4.28
2022-10-29T07:15:25.783Z,3.35
2022-10-29T07:18:05.008Z,3.20
2022-10-29T07:20:34.060Z,3.17
2022-10-29T07:23:01.388Z,3.30
2022-10-29T07:25:29.236Z,3.53
2022-10-29T07:28:02.202Z,3.60
2022-10-29T07:30:28.869Z,3.55
2022-10-29T07:32:55.279Z,3.78
2022-10-29T07:35:21.705Z,3.83
2022-10-29T07:37:48.129Z,3.78
2022-10-29T07:40:14.577Z,3.60
2022-10-29T07:42:41.020Z,3.97
2022-10-29T07:45:07.995Z,3.55
2022-10-29T07:47:35.562Z,3.90
2022-10-29T07:50:01.995Z,4.00
2022-10-29T07:52:28.426Z,3.38
2022-10-29T07:54:54.809Z,3.53
2022-10-29T07:57:22.392Z,3.88
2022-10-29T07:59:50.180Z,3.15
2022-10-29T08:02:16.690Z,3.80
2022-10-29T08:04:43.144Z,3.80
2022-10-29T08:07:09.569Z,3.17
2022-10-29T08:09:35.984Z,3.80
2022-10-29T08:12:04.959Z,3.45
2022-10-29T08:14:31.391Z,3.30
2022-10-29T08:16:57.905Z,3.40
2022-10-29T08:19:24.686Z,3.42
2022-10-29T08:21:51.069Z,3.38
2022-10-29T08:24:17.520Z,3.65
2022-10-29T08:26:44.060Z,3.45
2022-10-29T08:29:10.484Z,3.50
2022-10-29T08:31:36.891Z,3.00
2022-10-29T08:34:07.149Z,4.13
2022-10-29T08:36:36.490Z,3.42
2022-10-29T08:39:02.938Z,3.60
2022-10-29T08:41:45.074Z,3.47
2022-10-29T08:44:40.717Z,4.43
2022-10-29T08:47:20.626Z,4.22
2022-10-29T08:49:50.065Z,4.35
2022-10-29T08:52:24.754Z,4.05
2022-10-29T08:55:13.674Z,4.13
2022-10-29T08:57:49.137Z,3.60
2022-10-29T09:00:18.861Z,3.40
2022-10-29T09:02:45.348Z,3.05
2022-10-29T09:05:17.509Z,2.88
2022-10-29T09:07:55.238Z,3.15
2022-10-29T09:10:37.439Z,3.53
2022-10-29T09:13:25.093Z,3.00
2022-10-29T09:16:21.259Z,2.92
2022-10-29T09:19:08.439Z,2.80
2022-10-29T09:21:56.868Z,3.33
2022-10-29T09:24:35.079Z,3.10
2022-10-29T09:27:29.543Z,2.85
2022-10-29T09:29:58.933Z,2.67
2022-10-29T09:32:39.168Z,2.85
2022-10-29T09:35:16.993Z,3.15
2022-10-29T09:37:54.809Z,3.40
2022-10-29T09:40:40.288Z,3.00
2022-10-29T09:43:12.588Z,3.20
2022-10-29T09:45:50.505Z,3.78
2022-10-29T09:48:22.472Z,3.50
2022-10-29T09:51:19.079Z,3.20
2022-10-29T09:53:45.875Z,3.50
2022-10-29T09:56:12.284Z,3.65
2022-10-29T09:58:44.599Z,3.40
2022-10-29T10:01:11.466Z,3.60
2022-10-29T10:03:48.474Z,3.88
2022-10-29T10:06:16.834Z,4.38
2022-10-29T10:09:04.836Z,3.42
2022-10-29T10:11:35.279Z,3.38
2022-10-29T10:14:09.498Z,3.67
2022-10-29T10:16:36.046Z,4.00
2022-10-29T10:19:02.810Z,3.67
2022-10-29T10:21:33.673Z,3.53
2022-10-29T10:24:00.805Z,3.80
2022-10-29T10:26:43.033Z,3.25
2022-10-29T10:29:21.156Z,3.38
2022-10-29T10:32:10.748Z,2.75
2022-10-29T10:34:39.245Z,3.17
2022-10-29T10:37:18.849Z,3.13
2022-10-29T10:39:58.298Z,3.00
2022-10-29T10:42:36.951Z,3.05
2022-10-29T10:45:14.402Z,2.53
2022-10-29T10:47:45.652Z,2.28
2022-10-29T10:50:21.086Z,2.60
2022-10-29T10:52:47.824Z,3.08
2022-10-29T10:55:25.498Z,3.05
2022-10-29T10:57:56.017Z,2.85
2022-10-29T11:00:23.410Z,2.33
2022-10-29T11:03:08.233Z,2.15
2022-10-29T11:05:43.733Z,2.38
2022-10-29T11:08:19.120Z,2.90
2022-10-29T11:10:53.561Z,3.10
2022-10-29T11:13:23.228Z,2.67
2022-10-29T11:16:04.492Z,2.70
2022-10-29T11:18:37.975Z,3.05
2022-10-29T11:21:42.623Z,3.08
2022-10-29T11:24:14.160Z,3.10
2022-10-29T11:27:02.962Z,2.75
2022-10-29T11:29:48.950Z,2.60
2022-10-29T11:32:25.624Z,2.70
2022-10-29T11:35:16.606Z,2.75
2022-10-29T11:37:47.368Z,2.30
2022-10-29T11:40:19.884Z,3.00
2022-10-29T11:42:46.305Z,2.78
2022-10-29T11:45:17.379Z,2.65
2022-10-29T11:47:55.608Z,2.97
2022-10-29T11:50:32.190Z,2.42
2022-10-29T11:53:19.809Z,2.80
2022-10-29T11:56:16.538Z,2.38
2022-10-29T11:58:53.580Z,2.92
2022-10-29T12:01:22.981Z,3.00
2022-10-29T12:03:49.429Z,2.90
2022-10-29T12:06:41.004Z,3.17
2022-10-29T12:09:37.815Z,2.90
2022-10-29T12:12:23.443Z,2.50
2022-10-29T12:14:59.579Z,2.95
2022-10-29T12:17:38.025Z,3.47
2022-10-29T12:20:16.983Z,3.35
2022-10-29T12:23:25.312Z,2.78
2022-10-29T12:26:02.193Z,2.65
2022-10-29T12:28:47.802Z,3.25
2022-10-29T12:31:28.922Z,2.78
2022-10-29T12:34:23.847Z,2.85
2022-10-29T12:37:10.158Z,2.80
2022-10-29T12:39:43.732Z,2.60
2022-10-29T12:42:19.242Z,2.42
2022-10-29T12:45:07.012Z,3.42
2022-10-29T12:48:15.334Z,2.63
2022-10-29T12:51:04.057Z,2.50
2022-10-29T12:53:56.236Z,2.83
2022-10-29T12:56:23.912Z,2.92
2022-10-29T12:58:53.159Z,3.30
2022-10-29T13:01:38.215Z,3.10
2022-10-29T13:04:30.075Z,3.63
2022-10-29T13:07:01.269Z,4.18
2022-10-29T13:09:36.016Z,3.78
2022-10-29T13:12:10.477Z,3.90
2022-10-29T13:14:46.223Z,3.20
2022-10-29T13:17:30.034Z,3.53
2022-10-29T13:20:00.207Z,3.40
2022-10-29T13:22:54.202Z,3.35
2022-10-29T13:25:44.557Z,3.10
2022-10-29T13:28:11.122Z,3.10
2022-10-29T13:30:39.800Z,3.10
2022-10-29T13:33:28.063Z,2.97
2022-10-29T13:36:16.458Z,3.92
2022-10-29T13:39:05.975Z,2.90
2022-10-29T13:41:40.205Z,2.97
2022-10-29T13:44:14.202Z,3.10
2022-10-29T13:47:01.044Z,3.13
2022-10-29T13:49:36.758Z,3.20
2022-10-29T13:52:05.294Z,3.35
2022-10-29T13:54:54.971Z,3.38
2022-10-29T13:57:28.788Z,3.53
2022-10-29T14:00:01.579Z,3.58
2022-10-29T14:02:39.397Z,3.10
2022-10-29T14:05:23.866Z,3.72
2022-10-29T14:08:17.232Z,3.17
2022-10-29T14:10:43.609Z,3.80
2022-10-29T14:13:31.238Z,3.55
2022-10-29T14:16:02.847Z,3.70
2022-10-29T14:18:32.553Z,3.45
2022-10-29T14:21:01.383Z,3.22
2022-10-29T14:23:29.343Z,3.97
2022-10-29T14:26:03.829Z,4.63
2022-10-29T14:28:32.397Z,3.35
2022-10-29T14:31:15.233Z,3.13
2022-10-29T14:33:43.300Z,3.67
2022-10-29T14:36:15.524Z,4.35
2022-10-29T14:38:48.468Z,4.43
2022-10-29T14:41:16.561Z,4.15
2022-10-29T14:43:44.503Z,4.32
2022-10-29T14:46:23.907Z,4.28
2022-10-29T14:48:59.370Z,4.78
2022-10-29T14:51:26.897Z,4.50
2022-10-29T14:53:59.797Z,5.18
2022-10-29T14:56:33.415Z,4.82
2022-10-29T14:59:02.933Z,4.78
2022-10-29T15:01:29.598Z,4.43
2022-10-29T15:03:58.602Z,4.20
2022-10-29T15:06:28.166Z,4.50
2022-10-29T15:08:58.251Z,4.95
2022-10-29T15:11:40.323Z,4.75
2022-10-29T15:14:36.495Z,4.30
2022-10-29T15:17:10.220Z,4.78
2022-10-29T15:19:37.769Z,4.75
2022-10-29T15:22:11.649Z,4.55
2022-10-29T15:24:38.936Z,4.40
2022-10-29T15:27:06.424Z,4.50
2022-10-29T15:29:43.127Z,4.25
2022-10-29T15:32:14.868Z,4.65
2022-10-29T15:34:47.441Z,4.10
2022-10-29T15:37:19.924Z,4.65
2022-10-29T15:39:55.600Z,3.30
2022-10-29T15:42:24.858Z,3.40
2022-10-29T15:47:50.938Z,3.80
2022-10-29T15:50:23.197Z,3.92
2022-10-29T15:52:58.533Z,3.63
2022-10-29T15:55:33.631Z,3.47
2022-10-29T15:58:11.740Z,4.85
2022-10-29T16:00:40.249Z,4.40
2022-10-29T16:03:27.475Z,4.50
2022-10-29T16:05:56.253Z,4.75
2022-10-29T16:08:32.973Z,4.22
2022-10-29T16:11:01.821Z,5.00
2022-10-29T16:13:30.472Z,4.60
2022-10-29T16:15:56.937Z,4.38
2022-10-29T16:18:23.366Z,4.55
2022-10-29T16:20:53.583Z,4.30
2022-10-29T16:23:19.976Z,4.38
2022-10-29T16:25:46.377Z,4.53
2022-10-29T16:28:13.001Z,4.43
2022-10-29T16:33:11.856Z,4.30
2022-10-29T16:35:38.227Z,4.03
2022-10-29T16:38:04.613Z,4.07
2022-10-29T16:40:31.001Z,4.85
2022-10-29T16:42:57.914Z,5.55
2022-10-29T16:45:27.261Z,5.10
2022-10-29T16:47:54.376Z,5.50
2022-10-29T16:50:32.392Z,6.57
2022-10-29T16:53:07.789Z,6.50
2022-10-29T16:55:36.594Z,4.97
2022-10-29T16:58:03.577Z,5.22
2022-10-29T17:00:31.862Z,4.63
2022-10-29T17:03:04.960Z,5.22
2022-10-29T17:05:38.263Z,5.25
2022-10-29T17:08:05.100Z,4.18
2022-10-29T17:10:31.558Z,4.53
2022-10-29T17:12:59.360Z,4.72
2022-10-29T17:15:26.551Z,4.43
2022-10-29T17:17:53.294Z,4.40
2022-10-29T17:20:20.643Z,4.18
2022-10-29T17:22:47.077Z,4.40
2022-10-29T17:25:13.506Z,4.00
2022-10-29T17:27:43.473Z,4.00
2022-10-29T17:30:10.864Z,3.70
2022-10-29T17:32:37.676Z,3.65
2022-10-29T17:35:04.569Z,3.55
2022-10-29T17:37:31.237Z,4.18
2022-10-29T17:40:01.463Z,3.70
2022-10-29T17:42:31.418Z,3.65
2022-10-29T17:44:57.821Z,3.63
2022-10-29T17:47:24.311Z,3.88
2022-10-29T17:49:50.768Z,3.90
2022-10-29T17:52:19.434Z,4.38
2022-10-29T17:54:45.822Z,4.20
2022-10-29T17:57:12.218Z,4.20
2022-10-29T17:59:38.623Z,4.18
2022-10-29T18:02:05.169Z,4.32
2022-10-29T18:04:31.711Z,4.47
2022-10-29T18:06:59.094Z,4.80
2022-10-29T18:09:25.509Z,5.20
2022-10-29T18:11:51.930Z,4.50
2022-10-29T18:14:18.416Z,4.35
2022-10-29T18:16:45.775Z,4.97
2022-10-29T18:19:15.260Z,5.15
2022-10-29T18:21:41.717Z,5.03
2022-10-29T18:24:08.472Z,4.88
2022-10-29T18:26:36.760Z,5.15
2022-10-29T18:29:08.181Z,4.88
2022-10-29T18:31:35.178Z,4.60
2022-10-29T18:34:06.264Z,6.20
2022-10-29T18:36:35.558Z,4.70
2022-10-29T18:39:03.862Z,4.40
2022-10-29T18:41:30.717Z,4.53
2022-10-29T18:43:58.658Z,3.97
2022-10-29T18:46:25.615Z,4.78
2022-10-29T18:48:52.683Z,4.65
2022-10-29T18:51:20.962Z,4.53
2022-10-29T18:53:47.379Z,4.55
2022-10-29T18:56:18.815Z,4.50
2022-10-29T18:58:45.832Z,4.03
2022-10-29T19:01:18.728Z,4.20
2022-10-29T19:03:53.177Z,4.72
2022-10-29T19:06:20.784Z,3.95
2022-10-29T19:08:47.928Z,4.32
2022-10-29T19:11:16.816Z,5.00
2022-10-29T19:13:43.258Z,4.47
2022-10-29T19:16:12.395Z,5.10
2022-10-29T19:18:40.729Z,5.25
2022-10-29T19:21:19.372Z,4.97
2022-10-29T19:23:46.572Z,4.97
2022-10-29T19:26:18.447Z,5.03
2022-10-29T19:28:46.454Z,4.40
2022-10-29T19:31:15.365Z,4.35
2022-10-29T19:33:47.513Z,4.78
2022-10-29T19:36:14.053Z,4.15
2022-10-29T19:38:40.455Z,5.03
2022-10-29T19:41:06.866Z,4.95
2022-10-29T19:43:33.631Z,5.15
2022-10-29T19:46:01.333Z,4.10
2022-10-29T19:48:27.735Z,4.18
2022-10-29T19:50:56.149Z,4.47
2022-10-29T19:53:24.032Z,5.03
2022-10-29T19:55:51.151Z,4.72
2022-10-29T19:58:18.627Z,4.88
2022-10-29T20:00:45.290Z,4.45
2022-10-29T20:03:12.895Z,4.93
2022-10-29T20:05:40.317Z,4.82
2022-10-29T20:08:11.355Z,3.90
2022-10-29T20:10:41.318Z,4.22
2022-10-29T20:13:07.778Z,4.25
2022-10-29T20:15:34.186Z,4.80
2022-10-29T20:18:00.829Z,5.28
2022-10-29T20:20:27.424Z,5.50
2022-10-29T20:22:53.932Z,5.10
2022-10-29T20:25:23.857Z,4.75
2022-10-29T20:27:50.715Z,4.70
2022-10-29T20:30:18.217Z,4.55
2022-10-29T20:32:44.683Z,4.72
2022-10-29T20:35:11.202Z,5.10
2022-10-29T20:37:37.570Z,4.43
2022-10-29T20:40:04.893Z,4.90
2022-10-29T20:42:31.311Z,5.13
2022-10-29T20:45:10.991Z,5.93
2022-10-29T20:47:37.380Z,6.53
2022-10-29T20:50:04.036Z,6.82
2022-10-29T20:52:30.445Z,7.15
2022-10-29T20:54:56.857Z,7.00
2022-10-29T20:57:29.491Z,6.72
2022-10-29T20:59:56.037Z,6.45
2022-10-29T21:02:22.548Z,6.97
2022-10-29T21:04:49.077Z,6.53
2022-10-29T21:07:15.515Z,6.85
2022-10-29T21:09:41.905Z,7.13
2022-10-29T21:12:08.340Z,6.78
2022-10-29T21:14:34.778Z,6.45
2022-10-29T21:17:01.195Z,6.22
2022-10-29T21:19:28.158Z,5.85
2022-10-29T21:21:54.569Z,5.93
2022-10-29T21:24:20.967Z,6.35
2022-10-29T21:26:47.371Z,5.55
2022-10-29T21:29:13.759Z,5.28
2022-10-29T21:31:40.159Z,5.30
2022-10-29T21:34:10.689Z,5.68
2022-10-29T21:36:37.069Z,4.40
2022-10-29T21:39:03.572Z,5.28
2022-10-29T21:41:29.974Z,4.65
2022-10-29T21:43:56.369Z,5.30
2022-10-29T21:46:22.759Z,5.22
2022-10-29T21:48:49.158Z,4.45
2022-10-29T21:51:17.110Z,4.25
2022-10-29T21:53:43.756Z,4.53
2022-10-29T21:56:12.780Z,4.25
2022-10-29T21:58:39.276Z,4.35
2022-10-29T22:01:07.409Z,4.30
2022-10-29T22:03:35.195Z,3.67
2022-10-29T22:06:06.997Z,3.63
2022-10-29T22:08:34.554Z,3.80
2022-10-29T22:11:01.568Z,3.70
2022-10-29T22:13:32.032Z,3.97
2022-10-29T22:15:58.737Z,3.70
2022-10-29T22:18:37.216Z,4.88
2022-10-29T22:21:08.134Z,3.90
2022-10-29T22:23:35.189Z,3.65
2022-10-29T22:26:01.721Z,3.75
2022-10-29T22:28:28.213Z,3.83
2022-10-29T22:31:02.005Z,3.92
2022-10-29T22:33:29.138Z,3.97
2022-10-29T22:35:55.727Z,4.03
2022-10-29T22:38:22.182Z,4.35
2022-10-29T22:40:48.645Z,4.45
2022-10-29T22:43:15.254Z,3.80
2022-10-29T22:45:45.472Z,4.50
2022-10-29T22:48:12.351Z,4.90
2022-10-29T22:50:38.775Z,5.32
2022-10-29T22:53:05.163Z,4.75
2022-10-29T22:55:31.639Z,5.25
2022-10-29T22:57:58.019Z,4.97
2022-10-29T23:00:24.462Z,4.25
2022-10-29T23:02:50.824Z,4.97
2022-10-29T23:05:17.238Z,4.75
2022-10-29T23:07:43.628Z,4.68
2022-10-29T23:10:10.053Z,4.75
2022-10-29T23:12:38.207Z,4.80
2022-10-29T23:15:05.357Z,4.43
2022-10-29T23:17:31.742Z,4.45
2022-10-29T23:19:58.737Z,4.15
2022-10-29T23:22:27.530Z,4.07
2022-10-29T23:24:54.239Z,4.75
2022-10-29T23:27:20.642Z,4.78
2022-10-29T23:29:47.064Z,4.25
2022-10-29T23:32:14.429Z,4.30
2022-10-29T23:34:40.861Z,4.10
2022-10-29T23:37:09.928Z,4.47
2022-10-29T23:39:36.890Z,3.95
2022-10-29T23:42:03.431Z,4.30
2022-10-29T23:44:29.804Z,3.72
2022-10-29T23:46:56.172Z,3.60
2022-10-29T23:49:22.561Z,3.63
2022-10-29T23:51:48.946Z,4.18
2022-10-29T23:54:15.333Z,4.18
2022-10-29T23:56:41.709Z,3.88
2022-10-29T23:59:08.095Z,3.75
